LYBE/BEG METAR and TAF weather

Enter ICAO airport designator
Station Type Date Time Source
LYBE METAR 2017/07/24 04:00 UTC NOAA

LYBE 240400Z 08004KT CAVOK 24/17 Q1010 NOSIG


Station Type Date Time Source
LYBE Decoded METAR 2017/07/24 04:00 UTC NOAA

Beograd / Surcin, Serbia and Montenegro (LYBE) 44-49N 020-17E 99M
Jul 24, 2017 - 12:00 AM EDT / 2017.07.24 0400 UTC
Wind: from the E (080 degrees) at 5 MPH (4 KT):0
Visibility: greater than 7 mile(s):0
Temperature: 75 F (24 C)
Dew Point: 62 F (17 C)
Relative Humidity: 64%
Pressure (altimeter): 29.83 in. Hg (1010 hPa)
ob: LYBE 240400Z 08004KT CAVOK 24/17 Q1010 NOSIG
cycle: 4

Station Type Date Time Source
LYBE TAF 2017/07/23 18:25 UTC NOAA

TAF LYBE 231700Z 2318/2418 28008KT CAVOK TX36/2414Z TN22/2403Z


Example: see airport list